createdAt,value
2019-03-05T00:06:43.790Z,7.32
2019-03-05T00:09:51.773Z,7.31
2019-03-05T00:12:19.004Z,7.32
2019-03-05T00:14:58.516Z,7.24
2019-03-05T00:17:25.720Z,7.08
2019-03-05T00:23:44.708Z,6.85
2019-03-05T00:30:02.180Z,6.69
2019-03-05T00:32:48.813Z,6.70
2019-03-05T00:35:54.967Z,6.54
2019-03-05T00:38:54.648Z,6.30
2019-03-05T00:42:06.132Z,6.26
2019-03-05T00:45:12.232Z,6.29
2019-03-05T00:48:18.283Z,6.42
2019-03-05T00:58:06.729Z,6.29
2019-03-05T01:01:12.935Z,6.12
2019-03-05T01:04:18.967Z,6.11
2019-03-05T01:16:21.195Z,5.85
2019-03-05T01:18:48.262Z,5.71
2019-03-05T01:21:56.351Z,5.62
2019-03-05T01:40:08.640Z,5.66
2019-03-05T01:43:16.654Z,5.75
2019-03-05T01:45:44.235Z,5.85
2019-03-05T01:57:15.287Z,6.54
2019-03-05T02:00:29.816Z,6.69
2019-03-05T02:09:11.111Z,6.80
2019-03-05T02:15:11.799Z,6.98
2019-03-05T02:17:38.863Z,6.96
2019-03-05T02:20:39.481Z,7.04
2019-03-05T02:23:45.540Z,7.04
2019-03-05T02:26:51.681Z,6.99
2019-03-05T02:29:57.758Z,6.95
2019-03-05T02:32:51.270Z,6.90
2019-03-05T02:35:57.393Z,6.94
2019-03-05T02:39:03.843Z,7.05
2019-03-05T02:42:10.060Z,7.07
2019-03-05T02:44:49.886Z,7.01
2019-03-05T02:54:10.363Z,6.67
2019-03-05T02:57:05.528Z,6.69
2019-03-05T03:00:13.536Z,6.50
2019-03-05T03:06:46.569Z,6.63
2019-03-05T03:12:39.758Z,6.94
2019-03-05T03:18:28.454Z,6.76
2019-03-05T03:20:55.546Z,6.82
2019-03-05T03:23:22.703Z,7.04
2019-03-05T03:25:49.901Z,7.08
2019-03-05T03:31:37.224Z,7.13
2019-03-05T03:43:09.047Z,6.99
2019-03-05T03:48:37.365Z,7.04
2019-03-05T03:57:06.977Z,6.93
2019-03-05T03:59:34.184Z,6.89
2019-03-05T04:02:01.465Z,7.17
2019-03-05T04:05:11.281Z,7.22
2019-03-05T04:14:00.171Z,7.09
2019-03-05T04:17:15.744Z,7.00
2019-03-05T04:19:42.929Z,7.13
2019-03-05T04:25:11.692Z,6.90
2019-03-05T04:30:40.119Z,6.66
2019-03-05T04:33:19.672Z,6.52
2019-03-05T04:38:47.826Z,6.03
2019-03-05T04:41:15.016Z,5.97
2019-03-05T04:43:43.010Z,6.08
2019-03-05T04:52:48.903Z,6.28
2019-03-05T04:55:47.889Z,6.32
2019-03-05T05:07:18.633Z,6.99
2019-03-05T05:12:46.971Z,6.78
2019-03-05T05:15:33.721Z,6.63
2019-03-05T05:21:15.095Z,6.55
2019-03-05T05:24:01.750Z,6.42
2019-03-05T05:26:28.957Z,6.33
2019-03-05T05:28:56.109Z,6.52
2019-03-05T05:31:23.681Z,6.70
2019-03-05T05:33:50.861Z,6.69
2019-03-05T05:36:37.560Z,6.73
2019-03-05T05:39:46.490Z,6.67
2019-03-05T05:48:49.277Z,6.74
2019-03-05T05:51:35.903Z,6.77
2019-03-05T05:54:03.131Z,6.99
2019-03-05T06:03:27.468Z,7.10
2019-03-05T06:05:54.603Z,7.07
2019-03-05T06:11:42.569Z,7.05
2019-03-05T06:14:10.255Z,7.11
2019-03-05T06:16:37.419Z,7.18
2019-03-05T06:19:04.505Z,7.27
2019-03-05T06:24:33.314Z,7.22
2019-03-05T06:30:01.898Z,7.33
2019-03-05T06:32:30.934Z,7.48
2019-03-05T06:37:58.998Z,7.41
2019-03-05T06:40:26.599Z,7.69
2019-03-05T06:43:25.569Z,7.62
2019-03-05T06:45:53.117Z,7.57
2019-03-05T06:49:01.483Z,7.61
2019-03-05T06:54:49.162Z,7.96
2019-03-05T06:57:48.360Z,7.85
2019-03-05T07:07:00.683Z,7.93
2019-03-05T07:10:06.796Z,7.83
2019-03-05T07:12:58.653Z,7.93
2019-03-05T07:15:57.398Z,7.91
2019-03-05T07:18:48.687Z,7.90
2019-03-05T07:24:55.187Z,8.07
2019-03-05T07:27:43.242Z,8.38
2019-03-05T07:30:29.912Z,8.38
2019-03-05T07:36:18.004Z,8.39
2019-03-05T07:44:48.110Z,9.06
2019-03-05T07:50:16.602Z,8.89
2019-03-05T07:55:44.878Z,8.74
2019-03-05T07:58:24.117Z,8.91
2019-03-05T08:01:21.511Z,9.06
2019-03-05T08:03:45.787Z,9.07
2019-03-05T08:06:13.000Z,9.18
2019-03-05T08:09:19.071Z,9.04
2019-03-05T08:11:46.279Z,8.99
2019-03-05T08:15:01.049Z,8.85
2019-03-05T08:18:00.237Z,8.81
2019-03-05T08:24:01.179Z,8.97
2019-03-05T08:32:16.977Z,10.10
2019-03-05T08:34:44.028Z,9.99
2019-03-05T08:37:13.363Z,9.74
2019-03-05T08:40:00.468Z,9.45
2019-03-05T08:42:27.622Z,9.20
2019-03-05T08:44:54.771Z,9.13
2019-03-05T08:50:23.393Z,8.99
2019-03-05T08:52:50.590Z,8.98
2019-03-05T08:58:19.327Z,9.07
2019-03-05T09:03:47.651Z,8.99
2019-03-05T09:06:26.593Z,8.92
2019-03-05T09:09:05.615Z,8.79
2019-03-05T09:14:53.634Z,8.82
2019-03-05T09:23:35.652Z,8.68
2019-03-05T09:41:21.667Z,8.95
2019-03-05T09:43:49.001Z,8.83
2019-03-05T09:46:57.346Z,8.74
2019-03-05T09:53:10.893Z,8.94
2019-03-05T09:55:38.045Z,8.94
2019-03-05T09:58:46.465Z,8.96
2019-03-05T10:36:20.440Z,9.19
2019-03-05T10:38:56.901Z,9.14
2019-03-05T10:41:36.975Z,9.05
2019-03-05T10:47:37.818Z,8.75
2019-03-05T10:56:19.950Z,8.58
2019-03-05T10:59:06.625Z,8.73
2019-03-05T11:01:33.847Z,8.98
2019-03-05T11:07:20.963Z,9.36
2019-03-05T11:10:00.658Z,9.67
2019-03-05T11:12:28.232Z,9.74
2019-03-05T11:14:55.526Z,9.69
2019-03-05T11:17:34.758Z,9.69
2019-03-05T11:20:02.281Z,9.69
2019-03-05T11:23:12.193Z,9.65
2019-03-05T11:25:39.502Z,9.56
2019-03-05T11:28:47.606Z,9.64
2019-03-05T11:34:47.536Z,9.60
2019-03-05T11:43:36.753Z,10.04
2019-03-05T11:46:45.602Z,10.14
2019-03-05T11:52:14.319Z,10.42
2019-03-05T11:55:22.301Z,10.54
2019-03-05T12:03:51.717Z,10.45
2019-03-05T12:06:18.879Z,10.61
2019-03-05T12:08:46.091Z,10.73
2019-03-05T12:11:13.299Z,10.80
2019-03-05T12:13:40.519Z,10.86
2019-03-05T12:16:24.318Z,10.85
2019-03-05T12:22:43.268Z,11.00
2019-03-05T12:28:46.013Z,10.68
2019-03-05T12:31:13.198Z,10.64
2019-03-05T12:33:40.352Z,10.57
2019-03-05T12:36:07.587Z,10.61
2019-03-05T12:44:56.153Z,10.89
2019-03-05T12:48:04.043Z,10.76
2019-03-05T12:50:43.443Z,10.76
2019-03-05T13:02:46.200Z,11.31
2019-03-05T13:11:16.314Z,10.77
2019-03-05T13:13:43.524Z,10.49
2019-03-05T13:19:11.712Z,10.04
2019-03-05T13:21:38.884Z,9.95
2019-03-05T13:24:37.872Z,9.65
2019-03-05T13:27:05.388Z,9.39
2019-03-05T13:29:32.544Z,9.25
2019-03-05T13:31:59.748Z,9.24
2019-03-05T13:34:27.273Z,9.23
2019-03-05T13:36:54.449Z,9.06
2019-03-05T13:39:22.195Z,9.12
2019-03-05T13:42:10.946Z,9.21
2019-03-05T13:51:28.626Z,9.32
2019-03-05T13:54:36.645Z,9.46
2019-03-05T13:57:43.690Z,9.58
2019-03-05T14:07:28.106Z,11.20
2019-03-05T14:12:57.190Z,11.61
2019-03-05T14:18:31.298Z,11.51
2019-03-05T14:20:58.437Z,11.60
2019-03-05T14:23:25.632Z,11.62
2019-03-05T14:25:53.818Z,11.70
2019-03-05T14:28:41.720Z,11.67
2019-03-05T14:31:21.056Z,11.46
2019-03-05T14:33:50.408Z,11.29
2019-03-05T14:36:37.438Z,11.25
2019-03-05T14:42:45.898Z,11.08
2019-03-05T14:45:56.669Z,10.70
2019-03-05T14:48:36.346Z,10.52
2019-03-05T14:54:29.660Z,10.29
2019-03-05T14:56:56.868Z,10.18
2019-03-05T14:59:24.410Z,10.15
2019-03-05T15:01:51.595Z,10.13
2019-03-05T15:04:18.820Z,10.06
2019-03-05T15:06:46.296Z,9.97
2019-03-05T15:09:13.535Z,9.94
2019-03-05T15:11:40.711Z,9.82
2019-03-05T15:14:55.654Z,9.79
2019-03-05T15:17:22.833Z,9.80
2019-03-05T15:19:50.007Z,9.93
2019-03-05T15:22:17.257Z,10.10
2019-03-05T15:27:42.801Z,10.27
2019-03-05T15:30:52.029Z,10.37
2019-03-05T15:33:19.238Z,10.40
2019-03-05T15:35:46.356Z,10.39
2019-03-05T15:41:15.042Z,10.40
2019-03-05T15:44:23.097Z,10.37
2019-03-05T15:46:50.369Z,10.22
2019-03-05T15:55:19.794Z,9.78
2019-03-05T16:00:48.263Z,9.83
2019-03-05T16:06:17.070Z,9.62
2019-03-05T16:08:44.282Z,9.58
2019-03-05T16:11:11.437Z,9.58
2019-03-05T16:13:58.231Z,9.63
2019-03-05T16:16:25.452Z,9.65
2019-03-05T16:19:33.475Z,9.49
2019-03-05T16:28:23.137Z,9.26
2019-03-05T16:37:12.120Z,8.99
2019-03-05T16:39:58.870Z,9.15
2019-03-05T16:42:34.602Z,9.07
2019-03-05T16:48:11.111Z,8.59
2019-03-05T16:50:57.943Z,8.42
2019-03-05T16:53:44.748Z,8.24
2019-03-05T16:56:31.713Z,8.08
2019-03-05T17:02:09.642Z,7.81
2019-03-05T17:04:56.375Z,7.98
2019-03-05T17:10:37.660Z,7.73
2019-03-05T17:13:04.886Z,7.44
2019-03-05T17:15:32.058Z,7.24
2019-03-05T17:17:59.192Z,7.08
2019-03-05T17:20:26.372Z,6.94
2019-03-05T17:22:53.663Z,6.95
2019-03-05T17:25:21.205Z,7.02
2019-03-05T17:27:48.415Z,6.91
2019-03-05T17:30:16.134Z,6.97
2019-03-05T17:32:43.491Z,7.09
2019-03-05T17:35:10.903Z,7.07
2019-03-05T17:37:38.106Z,6.85
2019-03-05T17:40:06.893Z,6.77
2019-03-05T17:42:34.473Z,6.82
2019-03-05T17:45:01.678Z,6.76
2019-03-05T17:47:29.176Z,6.65
2019-03-05T17:49:56.357Z,6.39
2019-03-05T17:52:23.909Z,6.30
2019-03-05T17:54:51.361Z,6.09
2019-03-05T17:57:18.584Z,5.97
2019-03-05T17:59:45.784Z,6.10
2019-03-05T18:02:13.188Z,6.08
2019-03-05T18:04:40.746Z,5.92
2019-03-05T18:07:08.394Z,5.74
2019-03-05T18:09:36.017Z,5.57
2019-03-05T18:12:03.513Z,5.47
2019-03-05T18:14:30.733Z,5.51
2019-03-05T18:16:58.033Z,5.43
2019-03-05T18:19:25.470Z,5.47
2019-03-05T18:21:52.644Z,5.45
2019-03-05T18:24:19.881Z,5.57
2019-03-05T18:26:47.095Z,5.68
2019-03-05T18:29:14.332Z,5.70
2019-03-05T18:31:41.914Z,5.70
2019-03-05T18:34:09.076Z,5.74
2019-03-05T18:36:36.655Z,5.88
2019-03-05T18:39:04.724Z,5.81
2019-03-05T18:41:32.054Z,5.85
2019-03-05T18:43:59.321Z,6.00
2019-03-05T18:46:26.806Z,6.01
2019-03-05T18:48:53.983Z,6.04
2019-03-05T18:51:21.338Z,5.90
2019-03-05T18:53:49.417Z,5.85
2019-03-05T18:56:16.624Z,5.87
2019-03-05T18:58:43.935Z,5.87
2019-03-05T19:01:11.353Z,6.02
2019-03-05T19:03:38.578Z,6.12
2019-03-05T19:06:06.136Z,6.06
2019-03-05T19:08:33.721Z,5.95
2019-03-05T19:11:00.909Z,5.81
2019-03-05T19:13:28.373Z,5.66
2019-03-05T19:15:55.597Z,5.64
2019-03-05T19:18:22.791Z,5.74
2019-03-05T19:20:49.979Z,5.73
2019-03-05T19:23:17.274Z,5.70
2019-03-05T19:25:44.866Z,5.65
2019-03-05T19:28:12.291Z,5.55
2019-03-05T19:30:39.850Z,5.42
2019-03-05T19:33:06.921Z,5.44
2019-03-05T19:35:34.238Z,5.36
2019-03-05T19:38:01.501Z,5.27
2019-03-05T19:40:31.033Z,5.14
2019-03-05T19:42:58.299Z,5.11
2019-03-05T19:45:25.465Z,5.08
2019-03-05T19:47:52.884Z,5.00
2019-03-05T19:50:20.323Z,4.93
2019-03-05T19:52:47.758Z,4.90
2019-03-05T19:55:16.598Z,4.79
2019-03-05T19:57:43.864Z,4.92
2019-03-05T20:00:14.581Z,4.83
2019-03-05T20:02:42.233Z,4.73
2019-03-05T20:05:10.905Z,4.62
2019-03-05T20:07:38.672Z,4.53
2019-03-05T20:10:07.685Z,4.49
2019-03-05T20:12:34.927Z,4.41
2019-03-05T20:15:02.250Z,4.68
2019-03-05T20:17:29.809Z,4.96
2019-03-05T20:19:57.421Z,5.05
2019-03-05T20:22:25.199Z,4.98
2019-03-05T20:24:52.387Z,4.88
2019-03-05T20:27:19.596Z,4.92
2019-03-05T20:29:47.147Z,4.92
2019-03-05T20:32:14.861Z,4.77
2019-03-05T20:34:42.609Z,4.63
2019-03-05T20:37:10.543Z,4.53
2019-03-05T20:39:38.547Z,4.44
2019-03-05T20:42:05.990Z,4.72
2019-03-05T20:44:33.878Z,4.71
2019-03-05T20:47:01.046Z,4.61
2019-03-05T20:49:28.341Z,4.52
2019-03-05T20:51:58.322Z,4.51
2019-03-05T20:54:25.629Z,4.52
2019-03-05T20:56:53.191Z,4.56
2019-03-05T20:59:20.493Z,4.61
2019-03-05T21:01:48.024Z,4.62
2019-03-05T21:04:15.570Z,4.60
2019-03-05T21:06:42.885Z,4.65
2019-03-05T21:09:21.874Z,4.76
2019-03-05T21:11:49.504Z,4.68
2019-03-05T21:14:16.791Z,4.54
2019-03-05T21:16:44.356Z,4.41
2019-03-05T21:19:11.522Z,4.34
2019-03-05T21:21:38.794Z,4.29
2019-03-05T21:24:06.010Z,4.29
2019-03-05T21:26:33.195Z,4.34
2019-03-05T21:29:00.675Z,4.45
2019-03-05T21:31:27.927Z,4.57
2019-03-05T21:33:55.270Z,4.58
2019-03-05T21:36:22.596Z,4.42
2019-03-05T21:38:49.837Z,4.30
2019-03-05T21:41:17.328Z,4.28
2019-03-05T21:43:44.787Z,4.21
2019-03-05T21:46:15.136Z,4.10
2019-03-05T21:48:42.716Z,4.01
2019-03-05T21:51:10.019Z,3.94
2019-03-05T21:53:37.483Z,3.93
2019-03-05T21:56:05.135Z,3.92
2019-03-05T21:58:32.318Z,3.91
2019-03-05T22:00:59.537Z,3.92
2019-03-05T22:03:26.765Z,3.90
2019-03-05T22:05:53.898Z,3.88
2019-03-05T22:08:21.451Z,3.89
2019-03-05T22:10:48.661Z,3.91
2019-03-05T22:13:15.863Z,3.99
2019-03-05T22:15:43.057Z,3.99
2019-03-05T22:18:10.264Z,4.00
2019-03-05T22:20:37.548Z,4.04
2019-03-05T22:23:04.843Z,4.11
2019-03-05T22:25:32.047Z,4.17
2019-03-05T22:27:59.280Z,4.23
2019-03-05T22:30:27.089Z,4.27
2019-03-05T22:32:54.179Z,4.29
2019-03-05T22:35:21.651Z,4.36
2019-03-05T22:37:48.826Z,4.38
2019-03-05T22:40:16.655Z,4.32
2019-03-05T22:42:44.030Z,4.26
2019-03-05T22:45:14.097Z,4.22
2019-03-05T22:47:41.225Z,4.20
2019-03-05T22:50:09.237Z,4.18
2019-03-05T22:52:36.521Z,4.22
2019-03-05T22:55:04.593Z,4.24
2019-03-05T22:57:31.790Z,4.25
2019-03-05T22:59:59.019Z,4.27
2019-03-05T23:02:26.409Z,4.27
2019-03-05T23:04:54.271Z,4.29
2019-03-05T23:07:21.487Z,4.37
2019-03-05T23:09:48.712Z,4.53
2019-03-05T23:12:15.947Z,4.67
2019-03-05T23:14:43.779Z,4.83
2019-03-05T23:17:12.007Z,4.95
2019-03-05T23:19:39.178Z,5.05
2019-03-05T23:22:06.369Z,5.22
2019-03-05T23:24:34.029Z,5.39
2019-03-05T23:27:01.414Z,5.51
2019-03-05T23:29:57.717Z,5.60
2019-03-05T23:32:25.354Z,5.67
2019-03-05T23:34:53.119Z,5.76
2019-03-05T23:37:20.241Z,5.84
2019-03-05T23:39:47.437Z,5.94
2019-03-05T23:42:14.676Z,6.01
2019-03-05T23:44:42.010Z,6.04
2019-03-05T23:47:09.463Z,6.12
2019-03-05T23:49:36.635Z,6.19
2019-03-05T23:52:04.163Z,6.22
2019-03-05T23:54:31.649Z,6.26
2019-03-05T23:56:58.928Z,6.29
2019-03-05T23:59:26.167Z,6.31
